Savage Elevate — WDE3987 — position and weather

sailwx.info

Track history (hours):
 
Tides and Currents Weather Stations Pressure Air Temp Water Temp Dewpoint Dewpoint Depression Visibility Wind Speed Wind Dir Waves Ship Positions

Savage Elevate

Owner: Savage Inland Marine, Gibson, LA. More information available from US FCC via Universal Licensing System and Coast Guard Vessel Documentation Center.

Last reported at 2017-Oct-02 07:22 UTC. Time now 2017-Oct-20 05:10 UTC.
Position N 29°51' W 091°57'.
Warning: this ship's position is 17 days out of date.

Length 19 m.

Type: Other ship. MMSI: 367346980.

Date/timePositionNaut miles runAvg speedWind from/ knotsBaromVisibWave heightAir tempDewpointWater temp
2017-Oct-02 07:22N 29°51' W 091°57'2 6.6
2017-Oct-02 07:01N 29°50' W 091°59'3 6.6
2017-Oct-02 06:30N 29°49' W 092°03'3 6.6
2017-Oct-02 06:01N 29°48' W 092°07'3 6.6
2017-Oct-02 05:30N 29°47' W 092°10'3 6.3
2017-Oct-02 05:00N 29°48' W 092°14'3 6.5
2017-Oct-02 04:30N 29°49' W 092°17'3 6.3
2017-Oct-02 04:00N 29°51' W 092°20'39 6.2
2017-Oct-01 21:45N 29°56' W 093°05'2 6.3
2017-Oct-01 21:30N 29°56' W 093°07'3 6.0
2017-Oct-01 21:00N 29°57' W 093°10'3 6.4
2017-Oct-01 20:30N 29°59' W 093°12'3 5.9
2017-Oct-01 20:00N 30°02' W 093°14'3 5.8
2017-Oct-01 19:30N 30°04' W 093°16'2 4.0
2017-Oct-01 19:00N 30°05' W 093°18'1 1.4
2017-Oct-01 18:30N 30°06' W 093°18'1 2.1
2017-Oct-01 18:00N 30°06' W 093°19'3 5.9
2017-Oct-01 17:30N 30°04' W 093°22'3 6.5
2017-Oct-01 17:00N 30°04' W 093°26'3 6.5
2017-Oct-01 16:30N 30°04' W 093°29'3 6.6
2017-Oct-01 16:00N 30°04' W 093°33'3 6.5
2017-Oct-01 15:30N 30°04' W 093°37'3 6.6
2017-Oct-01 15:00N 30°04' W 093°41'  
2017-Sep-25 10:01N 29°34' W 094°56'0 5.7
2017-Sep-25 10:00N 29°34' W 094°56'3 5.7
2017-Sep-25 09:30N 29°37' W 094°57'3 5.9
2017-Sep-25 09:00N 29°39' W 094°58'3 5.8
2017-Sep-25 08:30N 29°42' W 095°00'3 5.0
2017-Sep-25 07:55N 29°44' W 095°03'3 0.3
2017-Sep-24 19:54N 29°46' W 095°06'2 0.1
2017-Sep-23 20:54N 29°47' W 095°04'0 0.4
2017-Sep-23 20:27N 29°47' W 095°05'  
Track history (hours):
 
Tides and Currents Weather Stations Pressure Air Temp Water Temp Dewpoint Dewpoint Depression Visibility Wind Speed Wind Dir Waves Ship Positions

Savage Elevate

Owner: Savage Inland Marine, Gibson, LA. More information available from US FCC via Universal Licensing System and Coast Guard Vessel Documentation Center.

Last reported at 2017-Oct-02 07:22 UTC. Time now 2017-Oct-20 05:10 UTC.
Position N 29°51' W 091°57'.
Warning: this ship's position is 17 days out of date.

Length 19 m.

Type: Other ship. MMSI: 367346980.

Date/timePositionNaut miles runAvg speedWind from/ knotsBaromVisibWave heightAir tempDewpointWater temp
2017-Oct-02 07:22N 29°51' W 091°57'2 6.6
2017-Oct-02 07:01N 29°50' W 091°59'3 6.6
2017-Oct-02 06:30N 29°49' W 092°03'3 6.6
2017-Oct-02 06:01N 29°48' W 092°07'3 6.6
2017-Oct-02 05:30N 29°47' W 092°10'3 6.3
2017-Oct-02 05:00N 29°48' W 092°14'3 6.5
2017-Oct-02 04:30N 29°49' W 092°17'3 6.3
2017-Oct-02 04:00N 29°51' W 092°20'39 6.2
2017-Oct-01 21:45N 29°56' W 093°05'2 6.3
2017-Oct-01 21:30N 29°56' W 093°07'3 6.0
2017-Oct-01 21:00N 29°57' W 093°10'3 6.4
2017-Oct-01 20:30N 29°59' W 093°12'3 5.9
2017-Oct-01 20:00N 30°02' W 093°14'3 5.8
2017-Oct-01 19:30N 30°04' W 093°16'2 4.0
2017-Oct-01 19:00N 30°05' W 093°18'1 1.4
2017-Oct-01 18:30N 30°06' W 093°18'1 2.1
2017-Oct-01 18:00N 30°06' W 093°19'3 5.9
2017-Oct-01 17:30N 30°04' W 093°22'3 6.5
2017-Oct-01 17:00N 30°04' W 093°26'3 6.5
2017-Oct-01 16:30N 30°04' W 093°29'3 6.6
2017-Oct-01 16:00N 30°04' W 093°33'3 6.5
2017-Oct-01 15:30N 30°04' W 093°37'3 6.6
2017-Oct-01 15:00N 30°04' W 093°41'  
2017-Sep-25 10:01N 29°34' W 094°56'0 5.7
2017-Sep-25 10:00N 29°34' W 094°56'3 5.7
2017-Sep-25 09:30N 29°37' W 094°57'3 5.9
2017-Sep-25 09:00N 29°39' W 094°58'3 5.8
2017-Sep-25 08:30N 29°42' W 095°00'3 5.0
2017-Sep-25 07:55N 29°44' W 095°03'3 0.3
2017-Sep-24 19:54N 29°46' W 095°06'2 0.1
2017-Sep-23 20:54N 29°47' W 095°04'0 0.4
2017-Sep-23 20:27N 29°47' W 095°05'  

Dump ship's entire track history